createdAt,value
2018-10-21T00:00:46.882Z,1024.88
2018-10-21T00:01:55.519Z,1024.85
2018-10-21T00:03:04.222Z,1024.87
2018-10-21T00:04:13.173Z,1024.87
2018-10-21T00:05:22.071Z,1024.79
2018-10-21T00:06:30.718Z,1024.74
2018-10-21T00:07:39.351Z,1024.72
2018-10-21T00:08:47.999Z,1024.72
2018-10-21T00:09:56.627Z,1024.7
2018-10-21T00:11:05.275Z,1024.69
2018-10-21T00:12:13.907Z,1024.65
2018-10-21T00:13:22.552Z,1024.61
2018-10-21T00:14:31.181Z,1024.58
2018-10-21T00:15:39.983Z,1024.53
2018-10-21T00:16:50.113Z,1024.54
2018-10-21T00:17:58.755Z,1024.59
2018-10-21T00:19:07.386Z,1024.59
2018-10-21T00:20:16.028Z,1024.59
2018-10-21T00:21:24.675Z,1024.64
2018-10-21T00:22:33.584Z,1024.64
2018-10-21T00:23:42.224Z,1024.6
2018-10-21T00:24:50.851Z,1024.66
2018-10-21T00:25:59.495Z,1024.66
2018-10-21T00:27:08.165Z,1024.61
2018-10-21T00:28:16.784Z,1024.62
2018-10-21T00:29:25.410Z,1024.62
2018-10-21T00:30:34.052Z,1024.62
2018-10-21T00:31:42.686Z,1024.61
2018-10-21T00:32:51.335Z,1024.6
2018-10-21T00:34:00.785Z,1024.62
2018-10-21T00:35:09.426Z,1024.62
2018-10-21T00:36:18.064Z,1024.57
2018-10-21T00:37:26.710Z,1024.61
2018-10-21T00:38:35.344Z,1024.59
2018-10-21T00:39:44.241Z,1024.56
2018-10-21T00:40:52.881Z,1024.55
2018-10-21T00:42:01.521Z,1024.55
2018-10-21T00:43:10.156Z,1024.57
2018-10-21T00:44:18.795Z,1024.61
2018-10-21T00:45:27.435Z,1024.62
2018-10-21T00:46:36.076Z,1024.62
2018-10-21T00:47:44.973Z,1024.62
2018-10-21T00:48:53.874Z,1024.57
2018-10-21T00:50:02.778Z,1024.59
2018-10-21T00:51:11.468Z,1024.58
2018-10-21T00:52:20.055Z,1024.64
2018-10-21T00:53:28.695Z,1024.62
2018-10-21T00:54:37.333Z,1024.61
2018-10-21T00:55:45.974Z,1024.61
2018-10-21T00:56:54.656Z,1024.55
2018-10-21T00:58:03.249Z,1024.55
2018-10-21T00:59:11.884Z,1024.57
2018-10-21T01:00:20.521Z,1024.57
2018-10-21T01:01:29.170Z,1024.56
2018-10-21T01:02:37.810Z,1024.61
2018-10-21T01:03:46.452Z,1024.56
2018-10-21T01:04:55.078Z,1024.6
2018-10-21T01:06:04.006Z,1024.6
2018-10-21T01:07:12.904Z,1024.55
2018-10-21T01:08:21.544Z,1024.57
2018-10-21T01:09:30.178Z,1024.58
2018-10-21T01:10:38.826Z,1024.6
2018-10-21T01:11:47.472Z,1024.67
2018-10-21T01:12:56.108Z,1024.7
2018-10-21T01:14:04.741Z,1024.68
2018-10-21T01:15:13.410Z,1024.69
2018-10-21T01:16:22.706Z,1024.71
2018-10-21T01:17:31.612Z,1024.72
2018-10-21T01:18:40.253Z,1024.69
2018-10-21T01:19:48.884Z,1024.71
2018-10-21T01:20:57.539Z,1024.68
2018-10-21T01:22:06.168Z,1024.65
2018-10-21T01:23:14.815Z,1024.6
2018-10-21T01:24:23.450Z,1024.58
2018-10-21T01:25:32.088Z,1024.55
2018-10-21T01:26:40.730Z,1024.52
2018-10-21T01:27:49.371Z,1024.53
2018-10-21T01:28:58.003Z,1024.52
2018-10-21T01:30:06.645Z,1024.54
2018-10-21T01:31:15.278Z,1024.55
2018-10-21T01:32:23.929Z,1024.57
2018-10-21T01:33:32.560Z,1024.55
2018-10-21T01:34:41.461Z,1024.6
2018-10-21T01:35:50.090Z,1024.58
2018-10-21T01:36:58.749Z,1024.58
2018-10-21T01:38:07.450Z,1024.56
2018-10-21T01:39:16.447Z,1024.58
2018-10-21T01:40:25.020Z,1024.56
2018-10-21T01:41:33.649Z,1024.57
2018-10-21T01:42:42.295Z,1024.54
2018-10-21T01:43:50.930Z,1024.52
2018-10-21T01:44:59.853Z,1024.55
2018-10-21T01:46:08.465Z,1024.57
2018-10-21T01:47:17.110Z,1024.59
2018-10-21T01:48:25.746Z,1024.6
2018-10-21T01:49:34.698Z,1024.59
2018-10-21T01:50:43.327Z,1024.65
2018-10-21T01:51:51.966Z,1024.63
2018-10-21T01:53:00.611Z,1024.64
2018-10-21T01:54:09.513Z,1024.64
2018-10-21T01:55:18.151Z,1024.64
2018-10-21T01:56:26.782Z,1024.64
2018-10-21T01:57:35.423Z,1024.66
2018-10-21T01:58:44.055Z,1024.66
2018-10-21T01:59:52.702Z,1024.65
2018-10-21T02:01:01.338Z,1024.63
2018-10-21T02:02:09.977Z,1024.62
2018-10-21T02:03:18.747Z,1024.58
2018-10-21T02:04:27.260Z,1024.6
2018-10-21T02:05:35.888Z,1024.59
2018-10-21T02:06:44.792Z,1024.6
2018-10-21T02:07:53.428Z,1024.62
2018-10-21T02:09:02.102Z,1024.63
2018-10-21T02:10:11.403Z,1024.67
2018-10-21T02:11:20.039Z,1024.66
2018-10-21T02:12:28.681Z,1024.64
2018-10-21T02:13:37.310Z,1024.59
2018-10-21T02:14:45.955Z,1024.59
2018-10-21T02:15:54.590Z,1024.56
2018-10-21T02:17:03.232Z,1024.58
2018-10-21T02:18:12.126Z,1024.56
2018-10-21T02:19:20.769Z,1024.54
2018-10-21T02:20:29.404Z,1024.53
2018-10-21T02:21:38.046Z,1024.55
2018-10-21T02:22:46.674Z,1024.52
2018-10-21T02:23:55.325Z,1024.56
2018-10-21T02:25:03.961Z,1024.52
2018-10-21T02:26:12.648Z,1024.54
2018-10-21T02:27:21.301Z,1024.52
2018-10-21T02:28:29.867Z,1024.45
2018-10-21T02:29:38.509Z,1024.45
2018-10-21T02:30:47.677Z,1024.41
2018-10-21T02:31:56.319Z,1024.4
2018-10-21T02:33:05.257Z,1024.39
2018-10-21T02:34:14.260Z,1024.37
2018-10-21T02:35:23.159Z,1024.37
2018-10-21T02:36:31.803Z,1024.34
2018-10-21T02:37:40.444Z,1024.33
2018-10-21T02:38:49.609Z,1024.36
2018-10-21T02:39:58.249Z,1024.29
2018-10-21T02:41:07.411Z,1024.34
2018-10-21T02:42:16.364Z,1024.32
2018-10-21T02:43:24.958Z,1024.32
2018-10-21T02:44:33.602Z,1024.34
2018-10-21T02:45:42.754Z,1024.28
2018-10-21T02:46:51.394Z,1024.29
2018-10-21T02:48:00.039Z,1024.26
2018-10-21T02:49:08.678Z,1024.23
2018-10-21T02:50:17.617Z,1024.28
2018-10-21T02:51:26.261Z,1024.3
2018-10-21T02:52:35.161Z,1024.31
2018-10-21T02:53:43.796Z,1024.33
2018-10-21T02:54:52.443Z,1024.3
2018-10-21T02:56:01.333Z,1024.27
2018-10-21T02:57:10.023Z,1024.27
2018-10-21T02:58:18.614Z,1024.28
2018-10-21T02:59:27.527Z,1024.31
2018-10-21T03:00:36.420Z,1024.32
2018-10-21T03:01:45.061Z,1024.3
2018-10-21T03:02:53.701Z,1024.31
2018-10-21T03:04:02.345Z,1024.3
2018-10-21T03:05:10.982Z,1024.27
2018-10-21T03:06:19.879Z,1024.26
2018-10-21T03:07:28.776Z,1024.27
2018-10-21T03:08:37.677Z,1024.28
2018-10-21T03:09:46.851Z,1024.29
2018-10-21T03:10:55.491Z,1024.26
2018-10-21T03:12:04.140Z,1024.23
2018-10-21T03:13:12.776Z,1024.25
2018-10-21T03:14:21.446Z,1024.26
2018-10-21T03:15:30.088Z,1024.25
2018-10-21T03:16:38.730Z,1024.26
2018-10-21T03:17:47.360Z,1024.23
2018-10-21T03:18:56.009Z,1024.21
2018-10-21T03:20:04.645Z,1024.22
2018-10-21T03:21:13.676Z,1024.22
2018-10-21T03:22:22.615Z,1024.21
2018-10-21T03:23:31.257Z,1024.26
2018-10-21T03:24:39.899Z,1024.28
2018-10-21T03:25:48.808Z,1024.27
2018-10-21T03:26:57.824Z,1024.29
2018-10-21T03:28:06.687Z,1024.31
2018-10-21T03:29:15.329Z,1024.28
2018-10-21T03:30:24.229Z,1024.23
2018-10-21T03:31:33.149Z,1024.28
2018-10-21T03:32:41.797Z,1024.29
2018-10-21T03:33:50.901Z,1024.3
2018-10-21T03:34:59.995Z,1024.31
2018-10-21T03:36:08.671Z,1024.32
2018-10-21T03:37:17.274Z,1024.28
2018-10-21T03:38:25.917Z,1024.26
2018-10-21T03:39:34.815Z,1024.25
2018-10-21T03:40:43.456Z,1024.25
2018-10-21T03:41:52.616Z,1024.22
2018-10-21T03:43:01.521Z,1024.23
2018-10-21T03:44:10.439Z,1024.23
2018-10-21T03:45:19.328Z,1024.22
2018-10-21T03:46:27.973Z,1024.22
2018-10-21T03:47:36.607Z,1024.17
2018-10-21T03:48:45.246Z,1024.18
2018-10-21T03:49:53.877Z,1024.16
2018-10-21T03:51:02.520Z,1024.16
2018-10-21T03:52:11.254Z,1024.12
2018-10-21T03:53:19.797Z,1024.08
2018-10-21T03:54:28.436Z,1024.12
2018-10-21T03:55:37.337Z,1024.09
2018-10-21T03:56:45.972Z,1024.12
2018-10-21T03:57:54.621Z,1024.12
2018-10-21T03:59:03.253Z,1024.14
2018-10-21T04:00:11.891Z,1024.17
2018-10-21T04:01:20.790Z,1024.15
2018-10-21T04:02:29.431Z,1024.16
2018-10-21T04:03:38.073Z,1024.12
2018-10-21T04:04:46.710Z,1024.12
2018-10-21T04:05:55.346Z,1024.14
2018-10-21T04:07:03.985Z,1024.14
2018-10-21T04:08:12.628Z,1024.21
2018-10-21T04:09:21.259Z,1024.2
2018-10-21T04:10:29.894Z,1024.21
2018-10-21T04:11:38.532Z,1024.2
2018-10-21T04:12:47.447Z,1024.2
2018-10-21T04:13:56.079Z,1024.21
2018-10-21T04:15:05.250Z,1024.19
2018-10-21T04:16:13.922Z,1024.15
2018-10-21T04:17:22.911Z,1024.12
2018-10-21T04:18:31.546Z,1024.13
2018-10-21T04:19:40.184Z,1024.12
2018-10-21T04:20:48.818Z,1024.11
2018-10-21T04:21:57.463Z,1024.14
2018-10-21T04:23:06.430Z,1024.13
2018-10-21T04:24:15.335Z,1024.07
2018-10-21T04:25:23.972Z,1024.08
2018-10-21T04:26:32.869Z,1024.05
2018-10-21T04:27:41.511Z,1024.06
2018-10-21T04:28:50.178Z,1024.06
2018-10-21T04:29:59.047Z,1024.02
2018-10-21T04:31:07.940Z,1024.05
2018-10-21T04:32:16.582Z,1024.04
2018-10-21T04:33:25.218Z,1024.03
2018-10-21T04:34:33.860Z,1024.01
2018-10-21T04:35:42.487Z,1023.97
2018-10-21T04:36:51.125Z,1024.01
2018-10-21T04:37:59.766Z,1023.98
2018-10-21T04:39:08.405Z,1023.98
2018-10-21T04:40:17.163Z,1023.94
2018-10-21T04:41:25.934Z,1023.89
2018-10-21T04:42:34.576Z,1023.87
2018-10-21T04:43:43.213Z,1023.88
2018-10-21T04:44:52.147Z,1023.88
2018-10-21T04:46:00.836Z,1023.86
2018-10-21T04:47:09.457Z,1023.82
2018-10-21T04:48:18.052Z,1023.8
2018-10-21T04:49:26.963Z,1023.8
2018-10-21T04:50:35.593Z,1023.81
2018-10-21T04:51:44.229Z,1023.78
2018-10-21T04:52:52.859Z,1023.8
2018-10-21T04:54:01.506Z,1023.82
2018-10-21T04:55:10.142Z,1023.84
2018-10-21T04:56:19.047Z,1023.81
2018-10-21T04:57:27.681Z,1023.82
2018-10-21T04:58:36.321Z,1023.84
2018-10-21T04:59:44.969Z,1023.86
2018-10-21T05:00:53.600Z,1023.85
2018-10-21T05:02:02.245Z,1023.83
2018-10-21T05:03:10.873Z,1023.85
2018-10-21T05:04:19.523Z,1023.81
2018-10-21T05:05:28.152Z,1023.77
2018-10-21T05:06:36.802Z,1023.8
2018-10-21T05:07:45.434Z,1023.76
2018-10-21T05:08:54.078Z,1023.78
2018-10-21T05:10:03.041Z,1023.77
2018-10-21T05:11:11.614Z,1023.77
2018-10-21T05:12:20.240Z,1023.79
2018-10-21T05:13:28.880Z,1023.78
2018-10-21T05:14:37.518Z,1023.79
2018-10-21T05:15:46.471Z,1023.77
2018-10-21T05:16:55.320Z,1023.79
2018-10-21T05:18:03.948Z,1023.73
2018-10-21T05:19:12.586Z,1023.75
2018-10-21T05:20:21.220Z,1023.72
2018-10-21T05:21:29.866Z,1023.71
2018-10-21T05:22:38.493Z,1023.72
2018-10-21T05:23:47.151Z,1023.71
2018-10-21T05:24:56.056Z,1023.69
2018-10-21T05:26:04.701Z,1023.69
2018-10-21T05:27:13.329Z,1023.68
2018-10-21T05:28:21.973Z,1023.64
2018-10-21T05:29:30.873Z,1023.68
2018-10-21T05:30:39.520Z,1023.66
2018-10-21T05:31:48.152Z,1023.65
2018-10-21T05:32:56.783Z,1023.66
2018-10-21T05:34:05.474Z,1023.65
2018-10-21T05:35:14.489Z,1023.67
2018-10-21T05:36:23.131Z,1023.65
2018-10-21T05:37:31.766Z,1023.64
2018-10-21T05:38:40.403Z,1023.65
2018-10-21T05:39:49.033Z,1023.68
2018-10-21T05:40:58.264Z,1023.65
2018-10-21T05:42:06.901Z,1023.67
2018-10-21T05:43:15.539Z,1023.67
2018-10-21T05:44:24.169Z,1023.68
2018-10-21T05:45:33.072Z,1023.69
2018-10-21T05:46:42.033Z,1023.73
2018-10-21T05:47:50.616Z,1023.76
2018-10-21T05:48:59.247Z,1023.75
2018-10-21T05:50:07.887Z,1023.79
2018-10-21T05:51:16.524Z,1023.78
2018-10-21T05:52:25.167Z,1023.82
2018-10-21T05:53:33.805Z,1023.79
2018-10-21T05:54:42.441Z,1023.79
2018-10-21T05:55:51.076Z,1023.79
2018-10-21T05:56:59.717Z,1023.8
2018-10-21T05:58:08.638Z,1023.77
2018-10-21T05:59:17.603Z,1023.81
2018-10-21T06:00:26.239Z,1023.82
2018-10-21T06:01:34.873Z,1023.79
2018-10-21T06:02:43.556Z,1023.84
2018-10-21T06:03:52.836Z,1023.85
2018-10-21T06:05:01.758Z,1023.85
2018-10-21T06:06:10.391Z,1023.87
2018-10-21T06:07:19.030Z,1023.93
2018-10-21T06:08:27.665Z,1023.92
2018-10-21T06:09:36.300Z,1023.95
2018-10-21T06:10:44.942Z,1023.95
2018-10-21T06:11:53.572Z,1023.95
2018-10-21T06:13:02.224Z,1023.95
2018-10-21T06:14:10.854Z,1023.97
2018-10-21T06:15:19.760Z,1024.05
2018-10-21T06:16:28.925Z,1024.01
2018-10-21T06:17:37.568Z,1024.03
2018-10-21T06:18:46.205Z,1024.01
2018-10-21T06:19:54.842Z,1024.02
2018-10-21T06:21:03.475Z,1024.07
2018-10-21T06:22:12.214Z,1024.1
2018-10-21T06:23:21.189Z,1024.11
2018-10-21T06:24:30.090Z,1024.1
2018-10-21T06:25:38.725Z,1024.12
2018-10-21T06:26:47.360Z,1024.12
2018-10-21T06:27:55.997Z,1024.11
2018-10-21T06:29:04.639Z,1024.16
2018-10-21T06:30:13.279Z,1024.17
2018-10-21T06:31:21.911Z,1024.15
2018-10-21T06:32:30.551Z,1024.15
2018-10-21T06:33:39.518Z,1024.18
2018-10-21T06:34:48.087Z,1024.15
2018-10-21T06:35:56.729Z,1024.15
2018-10-21T06:37:05.378Z,1024.17
2018-10-21T06:38:14.282Z,1024.21
2018-10-21T06:39:23.177Z,1024.2
2018-10-21T06:40:32.626Z,1024.25
2018-10-21T06:41:41.262Z,1024.25
2018-10-21T06:42:49.904Z,1024.25
2018-10-21T06:43:58.539Z,1024.26
2018-10-21T06:45:07.245Z,1024.23
2018-10-21T06:46:16.184Z,1024.25
2018-10-21T06:47:25.089Z,1024.22
2018-10-21T06:48:33.816Z,1024.26
2018-10-21T06:49:42.365Z,1024.26
2018-10-21T06:50:51.007Z,1024.25
2018-10-21T06:51:59.645Z,1024.26
2018-10-21T06:53:08.288Z,1024.25
2018-10-21T06:54:16.918Z,1024.25
2018-10-21T06:55:25.558Z,1024.28
2018-10-21T06:56:34.680Z,1024.3
2018-10-21T06:57:43.196Z,1024.29
2018-10-21T06:58:51.743Z,1024.34
2018-10-21T07:00:00.384Z,1024.34
2018-10-21T07:01:09.022Z,1024.3
2018-10-21T07:02:17.656Z,1024.32
2018-10-21T07:03:26.291Z,1024.31
2018-10-21T07:04:35.006Z,1024.33
2018-10-21T07:05:43.566Z,1024.35
2018-10-21T07:06:52.204Z,1024.37
2018-10-21T07:08:01.108Z,1024.36
2018-10-21T07:09:09.741Z,1024.36
2018-10-21T07:10:18.381Z,1024.37
2018-10-21T07:11:27.018Z,1024.39
2018-10-21T07:12:35.918Z,1024.4
2018-10-21T07:13:44.828Z,1024.44
2018-10-21T07:14:53.736Z,1024.45
2018-10-21T07:16:02.696Z,1024.42
2018-10-21T07:17:11.619Z,1024.4
2018-10-21T07:18:20.256Z,1024.37
2018-10-21T07:19:28.895Z,1024.38
2018-10-21T07:20:37.529Z,1024.39
2018-10-21T07:21:46.442Z,1024.39
2018-10-21T07:22:55.081Z,1024.4
2018-10-21T07:24:03.730Z,1024.38
2018-10-21T07:25:12.374Z,1024.38
2018-10-21T07:26:21.005Z,1024.39
2018-10-21T07:27:29.645Z,1024.37
2018-10-21T07:28:38.388Z,1024.41
2018-10-21T07:29:46.937Z,1024.4
2018-10-21T07:30:55.559Z,1024.42
2018-10-21T07:32:04.203Z,1024.41
2018-10-21T07:33:12.838Z,1024.42
2018-10-21T07:34:21.486Z,1024.41
2018-10-21T07:35:30.122Z,1024.43
2018-10-21T07:36:38.763Z,1024.45
2018-10-21T07:37:47.398Z,1024.46
2018-10-21T07:38:56.045Z,1024.47
2018-10-21T07:40:04.739Z,1024.46
2018-10-21T07:41:13.318Z,1024.47
2018-10-21T07:42:21.954Z,1024.51
2018-10-21T07:43:30.592Z,1024.51
2018-10-21T07:44:39.510Z,1024.53
2018-10-21T07:45:48.403Z,1024.59
2018-10-21T07:46:57.049Z,1024.59
2018-10-21T07:48:06.211Z,1024.55
2018-10-21T07:49:14.965Z,1024.54
2018-10-21T07:50:23.492Z,1024.55
2018-10-21T07:51:32.136Z,1024.57
2018-10-21T07:52:40.767Z,1024.56
2018-10-21T07:53:49.416Z,1024.6
2018-10-21T07:54:58.050Z,1024.58
2018-10-21T07:56:07.008Z,1024.58
2018-10-21T07:57:15.639Z,1024.61
2018-10-21T07:58:24.285Z,1024.59
2018-10-21T07:59:32.928Z,1024.61
2018-10-21T08:00:41.829Z,1024.6
2018-10-21T08:01:50.475Z,1024.59
2018-10-21T08:02:59.106Z,1024.58
2018-10-21T08:04:07.828Z,1024.57
2018-10-21T08:05:16.738Z,1024.59
2018-10-21T08:06:25.387Z,1024.62
2018-10-21T08:07:34.019Z,1024.6
2018-10-21T08:08:42.967Z,1024.6
2018-10-21T08:09:51.563Z,1024.66
2018-10-21T08:11:00.530Z,1024.68
2018-10-21T08:12:09.163Z,1024.71
2018-10-21T08:13:17.804Z,1024.7
2018-10-21T08:14:26.448Z,1024.78
2018-10-21T08:15:35.097Z,1024.72
2018-10-21T08:16:43.736Z,1024.72
2018-10-21T08:17:52.378Z,1024.72
2018-10-21T08:19:01.027Z,1024.75
2018-10-21T08:20:09.927Z,1024.77
2018-10-21T08:21:18.698Z,1024.81
2018-10-21T08:22:27.680Z,1024.75
2018-10-21T08:23:36.326Z,1024.79
2018-10-21T08:24:44.959Z,1024.77
2018-10-21T08:25:53.607Z,1024.8
2018-10-21T08:27:02.253Z,1024.82
2018-10-21T08:28:10.953Z,1024.78
2018-10-21T08:29:19.949Z,1024.78
2018-10-21T08:30:29.397Z,1024.81
2018-10-21T08:31:38.037Z,1024.81
2018-10-21T08:32:46.685Z,1024.8
2018-10-21T08:33:55.615Z,1024.81
2018-10-21T08:35:04.512Z,1024.81
2018-10-21T08:36:13.158Z,1024.79
2018-10-21T08:37:21.800Z,1024.84
2018-10-21T08:38:30.446Z,1024.81
2018-10-21T08:39:39.077Z,1024.86
2018-10-21T08:40:47.723Z,1024.84
2018-10-21T08:41:56.356Z,1024.82
2018-10-21T08:43:05.008Z,1024.86
2018-10-21T08:44:13.638Z,1024.88
2018-10-21T08:45:22.279Z,1024.86
2018-10-21T08:46:30.946Z,1024.9
2018-10-21T08:47:40.333Z,1024.88
2018-10-21T08:48:48.943Z,1024.9
2018-10-21T08:49:57.642Z,1024.88
2018-10-21T08:51:06.659Z,1024.88
2018-10-21T08:52:15.489Z,1024.88
2018-10-21T08:53:23.942Z,1024.88
2018-10-21T08:54:32.579Z,1024.85
2018-10-21T08:55:41.496Z,1024.87
2018-10-21T08:56:50.123Z,1024.87
2018-10-21T08:57:59.114Z,1024.87
2018-10-21T08:59:07.687Z,1024.86
2018-10-21T09:00:16.333Z,1024.87
2018-10-21T09:01:24.962Z,1024.84
2018-10-21T09:02:33.611Z,1024.81
2018-10-21T09:03:42.248Z,1024.88
2018-10-21T09:04:50.893Z,1024.85
2018-10-21T09:05:59.792Z,1024.84
2018-10-21T09:07:08.458Z,1024.8
2018-10-21T09:08:17.080Z,1024.83
2018-10-21T09:09:25.724Z,1024.85
2018-10-21T09:10:34.771Z,1024.83
2018-10-21T09:11:43.268Z,1024.83
2018-10-21T09:12:51.914Z,1024.79
2018-10-21T09:14:00.556Z,1024.81
2018-10-21T09:15:09.321Z,1024.78
2018-10-21T09:16:18.425Z,1024.81
2018-10-21T09:17:26.953Z,1024.81
2018-10-21T09:18:35.855Z,1024.77
2018-10-21T09:19:44.506Z,1024.77
2018-10-21T09:20:53.137Z,1024.76
2018-10-21T09:22:01.823Z,1024.78
2018-10-21T09:23:11.187Z,1024.79
2018-10-21T09:24:20.106Z,1024.81
2018-10-21T09:25:28.738Z,1024.81
2018-10-21T09:26:37.382Z,1024.83
2018-10-21T09:27:46.023Z,1024.82
2018-10-21T09:28:54.944Z,1024.84
2018-10-21T09:30:03.853Z,1024.8
2018-10-21T09:31:12.830Z,1024.83
2018-10-21T09:32:21.400Z,1024.78
2018-10-21T09:33:30.110Z,1024.78
2018-10-21T09:34:38.688Z,1024.73
2018-10-21T09:35:47.332Z,1024.77
2018-10-21T09:36:56.030Z,1024.82
2018-10-21T09:38:04.612Z,1024.78
2018-10-21T09:39:13.261Z,1024.81
2018-10-21T09:40:22.070Z,1024.77
2018-10-21T09:41:30.817Z,1024.78
2018-10-21T09:42:39.714Z,1024.81
2018-10-21T09:43:48.361Z,1024.79
2018-10-21T09:44:57.004Z,1024.8
2018-10-21T09:46:05.681Z,1024.74
2018-10-21T09:47:14.283Z,1024.78
2018-10-21T09:48:22.925Z,1024.71
2018-10-21T09:49:31.567Z,1024.69
2018-10-21T09:50:40.212Z,1024.71
2018-10-21T09:51:49.122Z,1024.67
2018-10-21T09:52:58.049Z,1024.69
2018-10-21T09:54:07.220Z,1024.67
2018-10-21T09:55:15.890Z,1024.68
2018-10-21T09:56:24.520Z,1024.64
2018-10-21T09:57:33.420Z,1024.61
2018-10-21T09:58:42.167Z,1024.63
2018-10-21T09:59:50.705Z,1024.6
2018-10-21T10:00:59.647Z,1024.6
2018-10-21T10:02:08.258Z,1024.57
2018-10-21T10:03:16.901Z,1024.61
2018-10-21T10:04:25.569Z,1024.56
2018-10-21T10:05:34.470Z,1024.58
2018-10-21T10:06:43.403Z,1024.56
2018-10-21T10:07:52.021Z,1024.54
2018-10-21T10:09:00.654Z,1024.5
2018-10-21T10:10:09.356Z,1024.51
2018-10-21T10:11:18.325Z,1024.49
2018-10-21T10:12:26.959Z,1024.48
2018-10-21T10:13:35.865Z,1024.48
2018-10-21T10:14:44.505Z,1024.46
2018-10-21T10:15:53.150Z,1024.46
2018-10-21T10:17:01.798Z,1024.46
2018-10-21T10:18:10.708Z,1024.46
2018-10-21T10:19:19.398Z,1024.43
2018-10-21T10:20:27.994Z,1024.44
2018-10-21T10:21:36.635Z,1024.38
2018-10-21T10:22:45.280Z,1024.41
2018-10-21T10:23:53.929Z,1024.38
2018-10-21T10:25:02.583Z,1024.37
2018-10-21T10:26:11.595Z,1024.37
2018-10-21T10:27:20.759Z,1024.36
2018-10-21T10:28:29.407Z,1024.34
2018-10-21T10:29:38.052Z,1024.34
2018-10-21T10:30:46.696Z,1024.32
2018-10-21T10:31:55.337Z,1024.33
2018-10-21T10:33:04.242Z,1024.31
2018-10-21T10:34:12.993Z,1024.27
2018-10-21T10:35:21.943Z,1024.25
2018-10-21T10:36:30.853Z,1024.23
2018-10-21T10:37:39.768Z,1024.2
2018-10-21T10:38:48.414Z,1024.22
2018-10-21T10:39:57.320Z,1024.2
2018-10-21T10:41:06.313Z,1024.19
2018-10-21T10:42:14.963Z,1024.16
2018-10-21T10:43:23.591Z,1024.15
2018-10-21T10:44:32.234Z,1024.15
2018-10-21T10:45:40.877Z,1024.12
2018-10-21T10:46:49.524Z,1024.11
2018-10-21T10:47:58.165Z,1024.08
2018-10-21T10:49:06.851Z,1024.06
2018-10-21T10:50:15.450Z,1024.08
2018-10-21T10:51:24.097Z,1024.04
2018-10-21T10:52:32.738Z,1024.05
2018-10-21T10:53:41.658Z,1024.04
2018-10-21T10:54:50.304Z,1024.02
2018-10-21T10:55:59.236Z,1024.05
2018-10-21T10:57:07.875Z,1024.06
2018-10-21T10:58:16.587Z,1024.01
2018-10-21T10:59:25.175Z,1024.02
2018-10-21T11:00:34.145Z,1023.99
2018-10-21T11:01:42.789Z,1023.98
2018-10-21T11:02:51.428Z,1023.94
2018-10-21T11:04:00.357Z,1023.92
2018-10-21T11:05:09.308Z,1023.9
2018-10-21T11:06:18.024Z,1023.89
2018-10-21T11:07:27.414Z,1023.87
2018-10-21T11:08:36.058Z,1023.81
2018-10-21T11:09:44.696Z,1023.8
2018-10-21T11:10:53.354Z,1023.79
2018-10-21T11:12:02.265Z,1023.8
2018-10-21T11:13:11.216Z,1023.76
2018-10-21T11:14:20.666Z,1023.74
2018-10-21T11:15:29.317Z,1023.71
2018-10-21T11:16:37.959Z,1023.7
2018-10-21T11:17:46.603Z,1023.69
2018-10-21T11:18:55.280Z,1023.64
2018-10-21T11:20:03.890Z,1023.63
2018-10-21T11:21:12.800Z,1023.66
2018-10-21T11:22:21.591Z,1023.62
2018-10-21T11:23:30.480Z,1023.64
2018-10-21T11:24:39.117Z,1023.61
2018-10-21T11:25:47.769Z,1023.6
2018-10-21T11:26:56.406Z,1023.62
2018-10-21T11:28:05.162Z,1023.62
2018-10-21T11:29:14.016Z,1023.57
2018-10-21T11:30:22.663Z,1023.52
2018-10-21T11:31:31.303Z,1023.52
2018-10-21T11:32:39.954Z,1023.55
2018-10-21T11:33:49.120Z,1023.57
2018-10-21T11:34:57.765Z,1023.57
2018-10-21T11:36:06.407Z,1023.56
2018-10-21T11:37:15.202Z,1023.58
2018-10-21T11:38:23.700Z,1023.54
2018-10-21T11:39:32.605Z,1023.57
2018-10-21T11:40:41.247Z,1023.56
2018-10-21T11:41:50.148Z,1023.56
2018-10-21T11:42:59.122Z,1023.6
2018-10-21T11:44:08.044Z,1023.56
2018-10-21T11:45:16.691Z,1023.55
2018-10-21T11:46:25.422Z,1023.54
2018-10-21T11:47:33.979Z,1023.5
2018-10-21T11:48:42.616Z,1023.46
2018-10-21T11:49:51.263Z,1023.5
2018-10-21T11:51:00.161Z,1023.44
2018-10-21T11:52:08.904Z,1023.42
2018-10-21T11:53:17.465Z,1023.4
2018-10-21T11:54:26.109Z,1023.41
2018-10-21T11:55:35.008Z,1023.41
2018-10-21T11:56:43.657Z,1023.39
2018-10-21T11:57:52.311Z,1023.36
2018-10-21T11:59:00.953Z,1023.36
2018-10-21T12:00:09.599Z,1023.35
2018-10-21T12:01:18.305Z,1023.36
2018-10-21T12:02:26.880Z,1023.29
2018-10-21T12:03:35.529Z,1023.29
2018-10-21T12:04:44.184Z,1023.27
2018-10-21T12:05:52.824Z,1023.22
2018-10-21T12:07:01.555Z,1023.18
2018-10-21T12:08:11.335Z,1023.18
2018-10-21T12:09:19.987Z,1023.15
2018-10-21T12:10:28.626Z,1023.15
2018-10-21T12:11:37.537Z,1023.15
2018-10-21T12:12:46.180Z,1023.16
2018-10-21T12:13:54.837Z,1023.13
2018-10-21T12:15:03.480Z,1023.13
2018-10-21T12:16:12.191Z,1023.15
2018-10-21T12:17:20.762Z,1023.14
2018-10-21T12:18:29.678Z,1023.11
2018-10-21T12:19:38.360Z,1023.07
2018-10-21T12:20:46.970Z,1023.06
2018-10-21T12:21:55.661Z,1023.09
2018-10-21T12:23:04.332Z,1023.09
2018-10-21T12:24:13.382Z,1023.05
2018-10-21T12:25:22.184Z,1023.05
2018-10-21T12:26:31.030Z,1023.03
2018-10-21T12:27:39.674Z,1023.04
2018-10-21T12:28:48.589Z,1023.01
2018-10-21T12:29:57.227Z,1023
2018-10-21T12:31:05.895Z,1023
2018-10-21T12:32:14.523Z,1022.95
2018-10-21T12:33:23.169Z,1022.94
2018-10-21T12:34:31.814Z,1022.92
2018-10-21T12:35:40.456Z,1022.93
2018-10-21T12:36:49.103Z,1022.91
2018-10-21T12:37:57.746Z,1022.9
2018-10-21T12:39:06.653Z,1022.91
2018-10-21T12:40:15.633Z,1022.92
2018-10-21T12:41:24.216Z,1022.88
2018-10-21T12:42:32.855Z,1022.87
2018-10-21T12:43:41.545Z,1022.84
2018-10-21T12:44:50.144Z,1022.84
2018-10-21T12:45:58.806Z,1022.83
2018-10-21T12:47:08.673Z,1022.83
2018-10-21T12:48:17.245Z,1022.84
2018-10-21T12:49:25.887Z,1022.81
2018-10-21T12:50:34.541Z,1022.82
2018-10-21T12:51:43.184Z,1022.79
2018-10-21T12:52:51.830Z,1022.77
2018-10-21T12:54:00.836Z,1022.82
2018-10-21T12:55:09.520Z,1022.72
2018-10-21T12:56:18.099Z,1022.69
2018-10-21T12:57:26.749Z,1022.72
2018-10-21T12:58:35.406Z,1022.69
2018-10-21T12:59:44.038Z,1022.67
2018-10-21T13:00:52.946Z,1022.63
2018-10-21T13:02:01.591Z,1022.61
2018-10-21T13:03:10.235Z,1022.59
2018-10-21T13:04:18.947Z,1022.61
2018-10-21T13:05:27.524Z,1022.58
2018-10-21T13:06:36.168Z,1022.59
2018-10-21T13:07:44.815Z,1022.54
2018-10-21T13:08:53.455Z,1022.56
2018-10-21T13:10:02.125Z,1022.48
2018-10-21T13:11:10.746Z,1022.5
2018-10-21T13:12:19.396Z,1022.5
2018-10-21T13:13:28.134Z,1022.48
2018-10-21T13:14:36.684Z,1022.51
2018-10-21T13:15:45.329Z,1022.48
2018-10-21T13:16:53.970Z,1022.5
2018-10-21T13:18:02.882Z,1022.48
2018-10-21T13:19:11.618Z,1022.45
2018-10-21T13:20:20.763Z,1022.46
2018-10-21T13:21:29.409Z,1022.47
2018-10-21T13:22:38.063Z,1022.42
2018-10-21T13:23:46.694Z,1022.39
2018-10-21T13:24:55.343Z,1022.42
2018-10-21T13:26:04.265Z,1022.41
2018-10-21T13:27:12.910Z,1022.42
2018-10-21T13:28:22.021Z,1022.39
2018-10-21T13:29:30.980Z,1022.4
2018-10-21T13:30:39.623Z,1022.36
2018-10-21T13:31:48.265Z,1022.38
2018-10-21T13:32:56.914Z,1022.34
2018-10-21T13:34:05.656Z,1022.33
2018-10-21T13:35:14.571Z,1022.34
2018-10-21T13:36:23.208Z,1022.34
2018-10-21T13:37:31.865Z,1022.35
2018-10-21T13:38:40.498Z,1022.33
2018-10-21T13:39:49.412Z,1022.3
2018-10-21T13:40:58.357Z,1022.31
2018-10-21T13:42:07.011Z,1022.23
2018-10-21T13:43:15.735Z,1022.27
2018-10-21T13:44:24.301Z,1022.25
2018-10-21T13:45:33.200Z,1022.22
2018-10-21T13:46:41.846Z,1022.22
2018-10-21T13:47:50.497Z,1022.21
2018-10-21T13:48:59.164Z,1022.23
2018-10-21T13:50:07.790Z,1022.22
2018-10-21T13:51:16.425Z,1022.19
2018-10-21T13:52:25.097Z,1022.19
2018-10-21T13:53:33.827Z,1022.15
2018-10-21T13:54:42.808Z,1022.16